Holts Summit, Missouri
Current Conditions -  °F | °C
As of 3:53 PM on Sunday 23 Nov 2014 (Local Time) from KJEF Reporting Station
Haze Haze  
Wind Chill: 55°   Ceiling: 500
Heat Index: 55°   Visibility: 5mi
Dew Point: 54°   Wind: 0mph
Humidity: 96%   Direction: NA
Pressure: 29.33"   Gusts: NA
Location:  38.64°N, 92.12°W
Report Text: KJEF 232153Z 00000KT 5SM BR OVC005 13/12 A2933 RMK AO2 CIG 003V009 SLP921 T01280122
Loading
Personal Weather Stations






























Interactive Weather Map New forecast layout! Learn more

10-Day Weather Forecast

Advertisements
Track Severe Weather on mobile